Nederlandse vliegveldverwachtingen (TAF)

Luchtvaartmeteorologische informatie voor operationeel gebruik en vluchtvoorbereiding is beschikbaar op www.luchtvaartmeteo.nl.

ZCZC
FT161700 EHLE     LELYSTAD/LELYSTAD   NLD   -3 m.
TAF EHLE 161701Z 1618/1724 01009KT CAVOK
    PROB30 1702/1706 6000 MIFG=

ZCZC
FT161700 EHAM     AMSTERDAM/SCHIPHOL   NLD   -3 m.
TAF EHAM 161701Z 1618/1724 01012KT CAVOK
    BECMG 1618/1621 01006KT
    BECMG 1708/1711 03011KT SCT040
    BECMG 1718/1721 35005KT CAVOK=

ZCZC
FT161700 EHRD     ROTTERDAM/THE HAGUE AIRPORT   NLD   -5 m.
TAF EHRD 161701Z 1618/1724 01008KT CAVOK
    PROB30 1702/1706 6000 MIFG=

ZCZC
FT161700 EHGG     GRONINGEN/EELDE   NLD   5 m.
TAF EHGG 161700Z 1618/1724 02011KT CAVOK
    BECMG 1620/1623 34006KT
    PROB30 1700/1707 4000 BR MIFG
    BECMG 1706/1709 01011KT
    BECMG 1717/1720 34005KT=

ZCZC
FT161700 EHBK     MAASTRICHT/MAASTRICHT-AACHEN   NLD   114 m.
TAF EHBK 161700Z 1618/1724 03008KT CAVOK=

ZCZC
FT161700 EHEH     EINDHOVEN/EINDHOVEN   NLD   22 m.
TAF EHEH 161700Z 1618/1724 02008KT CAVOK
    BECMG 1721/1723 34005KT=

ZCZC
FC162100 EHKD     DE KOOY/DE KOOY   NLD   1 m.
TAF EHKD 162100Z NIL=

ZCZC
FC162100 EHGR     GILZE-RIJEN/GILZE-RIJEN   NLD   14 m.
TAF EHGR 162100Z NIL=

ZCZC
FC162100 EHLW     LEEUWARDEN/LEEUWARDEN   NLD   1 m.
TAF EHLW 162033Z 1621/1709 02007KT CAVOK
    PROB40 1700/1706 4000 BR MIFG=

ZCZC
FC162100 EHVK     VOLKEL/VOLKEL   NLD   21 m.
TAF EHVK 162034Z 1621/1709 02006KT CAVOK=

ZCZC
FC162100 EHWO     WOENSDRECHT/WOENSDRECHT   NLD   19 m.
TAF EHWO 162100Z NIL=

16/04/2021 23.15 uur LT